createdAt,value
2017-07-31T00:02:10.719Z,82.40
2017-07-31T00:04:38.346Z,82.30
2017-07-31T00:07:05.965Z,82.20
2017-07-31T00:09:33.638Z,82.10
2017-07-31T00:12:01.285Z,82.00
2017-07-31T00:14:28.914Z,82.20
2017-07-31T00:16:56.581Z,82.50
2017-07-31T00:19:24.217Z,82.50
2017-07-31T00:21:51.862Z,82.30
2017-07-31T00:24:19.521Z,82.20
2017-07-31T00:26:47.151Z,82.10
2017-07-31T00:29:14.798Z,82.00
2017-07-31T00:31:42.475Z,81.60
2017-07-31T00:34:10.496Z,81.90
2017-07-31T00:36:38.116Z,81.90
2017-07-31T00:39:05.802Z,81.10
2017-07-31T00:41:33.435Z,80.40
2017-07-31T00:44:01.054Z,79.40
2017-07-31T00:46:28.721Z,79.40
2017-07-31T00:48:56.333Z,78.70
2017-07-31T00:51:23.958Z,79.00
2017-07-31T00:53:51.641Z,79.40
2017-07-31T00:56:19.258Z,79.90
2017-07-31T00:58:46.874Z,80.20
2017-07-31T01:01:14.938Z,80.50
2017-07-31T01:03:43.056Z,80.20
2017-07-31T01:06:10.675Z,80.20
2017-07-31T01:08:38.445Z,79.50
2017-07-31T01:11:06.069Z,80.10
2017-07-31T01:13:33.739Z,80.50
2017-07-31T01:16:01.411Z,80.30
2017-07-31T01:18:29.413Z,80.20
2017-07-31T01:20:57.287Z,80.20
2017-07-31T01:23:24.958Z,80.50
2017-07-31T01:25:52.986Z,80.30
2017-07-31T01:28:20.633Z,80.30
2017-07-31T01:30:48.382Z,80.20
2017-07-31T01:33:15.999Z,80.20
2017-07-31T01:35:43.619Z,80.00
2017-07-31T01:38:11.415Z,80.70
2017-07-31T01:40:39.059Z,80.60
2017-07-31T01:43:06.704Z,80.60
2017-07-31T01:45:34.459Z,80.90
2017-07-31T01:48:02.077Z,81.30
2017-07-31T01:50:29.743Z,81.80
2017-07-31T01:52:57.490Z,82.00
2017-07-31T01:55:25.109Z,82.20
2017-07-31T01:57:52.718Z,82.60
2017-07-31T02:00:20.798Z,82.80
2017-07-31T02:02:48.421Z,82.80
2017-07-31T02:05:16.124Z,83.10
2017-07-31T02:07:44.388Z,83.20
2017-07-31T02:10:12.004Z,83.20
2017-07-31T02:12:39.670Z,83.20
2017-07-31T02:15:07.418Z,83.30
2017-07-31T02:17:35.067Z,83.40
2017-07-31T02:20:02.688Z,83.70
2017-07-31T02:22:30.458Z,83.50
2017-07-31T02:24:58.077Z,83.50
2017-07-31T02:27:25.689Z,83.50
2017-07-31T02:29:53.397Z,83.00
2017-07-31T02:32:21.037Z,82.70
2017-07-31T02:34:48.649Z,82.70
2017-07-31T02:37:16.430Z,82.70
2017-07-31T02:39:44.046Z,82.60
2017-07-31T02:42:11.659Z,82.60
2017-07-31T02:44:39.326Z,82.50
2017-07-31T02:47:06.953Z,82.50
2017-07-31T02:49:34.569Z,82.50
2017-07-31T02:52:02.300Z,82.70
2017-07-31T02:54:29.916Z,82.50
2017-07-31T02:56:57.534Z,82.60
2017-07-31T02:59:25.235Z,82.60
2017-07-31T03:01:52.879Z,82.60
2017-07-31T03:04:20.524Z,82.60
2017-07-31T03:06:48.237Z,82.80
2017-07-31T03:09:15.862Z,82.60
2017-07-31T03:11:43.560Z,82.30
2017-07-31T03:14:11.308Z,82.30
2017-07-31T03:16:38.926Z,82.20
2017-07-31T03:19:06.549Z,82.10
2017-07-31T03:21:34.234Z,81.90
2017-07-31T03:24:01.888Z,81.80
2017-07-31T03:26:29.502Z,81.70
2017-07-31T03:28:57.281Z,81.40
2017-07-31T03:31:24.902Z,81.30
2017-07-31T03:33:52.517Z,81.20
2017-07-31T03:36:20.187Z,81.20
2017-07-31T03:38:47.804Z,81.10
2017-07-31T03:41:15.429Z,81.30
2017-07-31T03:43:43.596Z,81.50
2017-07-31T03:46:11.817Z,81.70
2017-07-31T03:48:39.438Z,81.70
2017-07-31T03:51:07.180Z,81.70
2017-07-31T03:53:34.899Z,81.90
2017-07-31T03:56:04.085Z,82.10
2017-07-31T03:58:31.761Z,82.10
2017-07-31T04:00:59.432Z,82.10
2017-07-31T04:03:27.073Z,81.90
2017-07-31T04:05:54.754Z,81.90
2017-07-31T04:08:22.508Z,81.90
2017-07-31T04:10:50.146Z,82.10
2017-07-31T04:13:18.218Z,82.20
2017-07-31T04:15:45.914Z,82.20
2017-07-31T04:18:13.534Z,81.90
2017-07-31T04:20:41.305Z,81.90
2017-07-31T04:23:08.927Z,81.70
2017-07-31T04:25:36.582Z,81.60
2017-07-31T04:28:04.343Z,81.40
2017-07-31T04:30:31.968Z,81.30
2017-07-31T04:32:59.594Z,81.20
2017-07-31T04:35:27.381Z,80.90
2017-07-31T04:37:55.002Z,80.70
2017-07-31T04:40:22.622Z,80.70
2017-07-31T04:42:50.319Z,80.70
2017-07-31T04:45:17.958Z,80.60
2017-07-31T04:47:45.575Z,80.50
2017-07-31T04:50:13.247Z,80.50
2017-07-31T04:52:40.870Z,80.40
2017-07-31T04:55:08.742Z,80.30
2017-07-31T04:57:36.710Z,80.00
2017-07-31T05:00:04.455Z,79.60
2017-07-31T05:02:32.096Z,79.60
2017-07-31T05:04:59.938Z,79.20
2017-07-31T05:07:27.583Z,79.20
2017-07-31T05:09:55.202Z,78.80
2017-07-31T05:12:22.992Z,78.80
2017-07-31T05:14:50.719Z,78.40
2017-07-31T05:17:18.471Z,78.40
2017-07-31T05:19:46.342Z,78.30
2017-07-31T05:22:14.485Z,78.10
2017-07-31T05:24:42.175Z,78.10
2017-07-31T05:27:09.839Z,78.30
2017-07-31T05:29:37.453Z,78.10
2017-07-31T05:32:05.565Z,76.90
2017-07-31T05:34:33.316Z,76.90
2017-07-31T05:37:00.930Z,75.80
2017-07-31T05:39:28.607Z,75.50
2017-07-31T05:41:56.558Z,75.10
2017-07-31T05:44:24.203Z,75.00
2017-07-31T05:46:51.817Z,75.00
2017-07-31T05:49:19.477Z,74.90
2017-07-31T05:51:47.136Z,74.60
2017-07-31T05:54:14.756Z,73.80
2017-07-31T05:56:42.528Z,73.90
2017-07-31T05:59:10.146Z,73.30
2017-07-31T06:01:38.390Z,73.60
2017-07-31T06:04:06.179Z,71.60
2017-07-31T06:06:33.822Z,72.00
2017-07-31T06:09:01.472Z,73.20
2017-07-31T06:11:29.150Z,71.90
2017-07-31T06:13:57.682Z,71.70
2017-07-31T06:16:25.299Z,71.70
2017-07-31T06:18:52.967Z,72.50
2017-07-31T06:21:20.594Z,72.90
2017-07-31T06:23:48.214Z,73.50
2017-07-31T06:26:16.010Z,73.80
2017-07-31T06:28:43.634Z,73.60
2017-07-31T06:31:11.255Z,73.20
2017-07-31T06:33:38.943Z,73.90
2017-07-31T06:36:06.562Z,72.60
2017-07-31T06:38:34.177Z,72.40
2017-07-31T06:41:01.850Z,72.90
2017-07-31T06:43:29.466Z,73.00
2017-07-31T06:45:57.082Z,73.30
2017-07-31T06:48:24.814Z,72.80
2017-07-31T06:50:52.561Z,72.00
2017-07-31T06:53:20.178Z,72.20
2017-07-31T06:55:47.857Z,72.30
2017-07-31T06:58:15.494Z,72.30
2017-07-31T07:00:43.113Z,71.50
2017-07-31T07:03:10.783Z,71.00
2017-07-31T07:05:38.398Z,69.50
2017-07-31T07:08:06.074Z,70.30
2017-07-31T07:10:33.824Z,70.00
2017-07-31T07:13:01.490Z,70.00
2017-07-31T07:15:29.523Z,68.10
2017-07-31T07:17:57.238Z,68.10
2017-07-31T07:20:24.915Z,68.00
2017-07-31T07:22:58.191Z,69.20
2017-07-31T07:25:25.805Z,67.30
2017-07-31T07:27:53.422Z,67.90
2017-07-31T07:30:21.101Z,67.60
2017-07-31T07:32:48.770Z,68.20
2017-07-31T07:35:16.387Z,67.60
2017-07-31T07:37:44.702Z,66.60
2017-07-31T07:40:12.708Z,64.70
2017-07-31T07:42:40.373Z,64.70
2017-07-31T07:45:08.041Z,63.90
2017-07-31T07:47:35.658Z,63.50
2017-07-31T07:50:03.278Z,64.50
2017-07-31T07:52:30.954Z,65.70
2017-07-31T07:54:58.599Z,63.80
2017-07-31T07:57:26.244Z,63.70
2017-07-31T07:59:53.905Z,63.00
2017-07-31T08:02:21.533Z,63.40
2017-07-31T08:04:49.157Z,63.70
2017-07-31T08:07:16.925Z,63.60
2017-07-31T08:09:44.672Z,65.10
2017-07-31T08:12:12.317Z,64.90
2017-07-31T08:14:39.990Z,63.80
2017-07-31T08:17:07.709Z,63.30
2017-07-31T08:19:35.326Z,63.00
2017-07-31T08:22:03.099Z,62.90
2017-07-31T08:24:30.718Z,61.00
2017-07-31T08:26:58.334Z,60.90
2017-07-31T08:29:26.142Z,62.30
2017-07-31T08:31:53.784Z,61.30
2017-07-31T08:34:21.402Z,60.60
2017-07-31T08:36:49.281Z,61.70
2017-07-31T08:39:16.899Z,62.20
2017-07-31T08:41:44.568Z,62.00
2017-07-31T08:44:12.263Z,62.60
2017-07-31T08:46:39.884Z,61.60
2017-07-31T08:49:07.897Z,60.70
2017-07-31T08:51:35.659Z,60.80
2017-07-31T08:54:03.307Z,59.70
2017-07-31T08:56:30.922Z,58.20
2017-07-31T08:58:58.699Z,57.50
2017-07-31T09:01:26.343Z,56.70
2017-07-31T09:03:53.957Z,58.40
2017-07-31T09:06:21.735Z,55.70
2017-07-31T09:08:49.380Z,56.50
2017-07-31T09:11:16.999Z,57.20
2017-07-31T09:13:44.775Z,57.10
2017-07-31T09:16:12.395Z,56.70
2017-07-31T09:18:40.011Z,57.10
2017-07-31T09:21:07.705Z,57.40
2017-07-31T09:23:35.322Z,59.30
2017-07-31T09:26:02.937Z,59.20
2017-07-31T09:28:31.005Z,57.10
2017-07-31T09:30:58.704Z,57.10
2017-07-31T09:33:26.318Z,59.80
2017-07-31T09:35:53.986Z,56.10
2017-07-31T09:38:21.631Z,54.90
2017-07-31T09:43:23.685Z,56.10
2017-07-31T09:45:51.323Z,56.10
2017-07-31T09:48:18.946Z,54.90
2017-07-31T09:50:47.051Z,54.40
2017-07-31T09:53:15.255Z,55.10
2017-07-31T09:55:43.028Z,55.10
2017-07-31T09:58:10.776Z,55.60
2017-07-31T10:00:38.420Z,54.70
2017-07-31T10:03:06.064Z,55.10
2017-07-31T10:05:33.815Z,55.10
2017-07-31T10:08:01.434Z,52.10
2017-07-31T10:10:29.210Z,51.50
2017-07-31T10:12:56.954Z,51.70
2017-07-31T10:15:24.570Z,53.70
2017-07-31T10:17:52.185Z,52.90
2017-07-31T10:20:19.888Z,52.20
2017-07-31T10:25:21.453Z,51.90
2017-07-31T10:27:50.093Z,53.20
2017-07-31T10:30:17.736Z,53.80
2017-07-31T10:32:45.410Z,54.70
2017-07-31T10:35:13.435Z,54.10
2017-07-31T10:37:41.061Z,54.10
2017-07-31T10:40:08.819Z,51.10
2017-07-31T10:42:36.473Z,50.90
2017-07-31T10:45:04.097Z,51.10
2017-07-31T10:47:31.867Z,51.60
2017-07-31T10:49:59.486Z,51.30
2017-07-31T10:52:27.101Z,52.20
2017-07-31T10:54:54.800Z,51.00
2017-07-31T10:57:22.418Z,50.60
2017-07-31T10:59:50.090Z,51.30
2017-07-31T11:02:17.766Z,51.10
2017-07-31T11:04:45.484Z,50.20
2017-07-31T11:07:13.102Z,50.00
2017-07-31T11:09:40.875Z,49.00
2017-07-31T11:12:08.519Z,49.80
2017-07-31T11:14:36.129Z,50.70
2017-07-31T11:17:03.794Z,50.20
2017-07-31T11:19:31.456Z,49.60
2017-07-31T11:21:59.074Z,50.20
2017-07-31T11:24:26.761Z,50.40
2017-07-31T11:26:54.492Z,52.20
2017-07-31T11:29:22.109Z,49.70
2017-07-31T11:31:49.884Z,51.40
2017-07-31T11:34:17.499Z,49.80
2017-07-31T11:36:45.118Z,49.80
2017-07-31T11:39:12.820Z,50.80
2017-07-31T11:41:40.440Z,48.90
2017-07-31T11:44:08.063Z,48.90
2017-07-31T11:46:35.831Z,48.60
2017-07-31T11:49:03.454Z,49.40
2017-07-31T11:51:31.073Z,49.20
2017-07-31T11:53:59.145Z,49.20
2017-07-31T11:56:26.846Z,49.20
2017-07-31T11:58:54.467Z,48.90
2017-07-31T12:01:22.229Z,48.70
2017-07-31T12:03:49.845Z,49.10
2017-07-31T12:06:17.528Z,48.90
2017-07-31T12:08:45.275Z,50.00
2017-07-31T12:11:12.919Z,50.40
2017-07-31T12:13:40.538Z,49.30
2017-07-31T12:16:08.310Z,49.70
2017-07-31T12:18:35.930Z,49.70
2017-07-31T12:21:03.550Z,47.10
2017-07-31T12:23:31.213Z,46.70
2017-07-31T12:25:58.893Z,47.00
2017-07-31T12:28:26.514Z,47.30
2017-07-31T12:30:54.285Z,48.50
2017-07-31T12:33:21.930Z,47.70
2017-07-31T12:35:49.546Z,46.80
2017-07-31T12:38:17.218Z,46.10
2017-07-31T12:40:44.834Z,46.60
2017-07-31T12:43:12.449Z,45.60
2017-07-31T12:45:40.130Z,45.10
2017-07-31T12:48:07.754Z,47.10
2017-07-31T12:50:35.444Z,48.40
2017-07-31T12:53:03.193Z,47.40
2017-07-31T12:55:30.809Z,47.40
2017-07-31T12:57:58.431Z,46.70
2017-07-31T13:00:26.229Z,46.90
2017-07-31T13:02:53.847Z,46.00
2017-07-31T13:05:21.481Z,46.10
2017-07-31T13:10:23.218Z,46.40
2017-07-31T13:12:50.899Z,47.30
2017-07-31T13:15:18.548Z,46.60
2017-07-31T13:17:46.173Z,47.10
2017-07-31T13:20:13.940Z,46.60
2017-07-31T13:22:41.586Z,47.30
2017-07-31T13:25:09.229Z,46.60
2017-07-31T13:27:37.489Z,47.10
2017-07-31T13:30:05.156Z,47.40
2017-07-31T13:32:32.790Z,46.80
2017-07-31T13:35:00.497Z,46.60
2017-07-31T13:37:28.172Z,47.20
2017-07-31T13:39:55.920Z,46.40
2017-07-31T13:42:23.616Z,46.60
2017-07-31T13:44:51.254Z,45.90
2017-07-31T13:47:18.889Z,45.40
2017-07-31T13:49:46.581Z,46.70
2017-07-31T13:52:14.350Z,46.00
2017-07-31T13:54:41.991Z,46.40
2017-07-31T13:57:09.701Z,45.90
2017-07-31T13:59:37.384Z,46.30
2017-07-31T14:02:05.022Z,46.80
2017-07-31T14:04:32.710Z,46.30
2017-07-31T14:07:00.423Z,47.20
2017-07-31T14:09:28.068Z,45.90
2017-07-31T14:11:55.771Z,46.90
2017-07-31T14:14:23.406Z,47.90
2017-07-31T14:16:51.041Z,47.00
2017-07-31T14:19:18.818Z,46.20
2017-07-31T14:21:46.470Z,46.00
2017-07-31T14:24:14.094Z,46.10
2017-07-31T14:26:41.785Z,45.60
2017-07-31T14:29:09.533Z,46.50
2017-07-31T14:31:37.490Z,45.60
2017-07-31T14:34:05.173Z,46.00
2017-07-31T14:36:33.082Z,47.00
2017-07-31T14:39:00.730Z,47.30
2017-07-31T14:41:28.476Z,48.60
2017-07-31T14:43:56.121Z,49.20
2017-07-31T14:46:23.765Z,48.90
2017-07-31T14:48:51.513Z,48.00
2017-07-31T14:51:19.155Z,48.40
2017-07-31T14:53:46.782Z,48.90
2017-07-31T14:56:14.474Z,49.50
2017-07-31T14:58:42.606Z,50.30
2017-07-31T15:01:10.233Z,50.30
2017-07-31T15:03:37.917Z,50.10
2017-07-31T15:06:05.550Z,50.10
2017-07-31T15:08:33.183Z,48.60
2017-07-31T15:11:00.866Z,49.00
2017-07-31T15:13:28.901Z,49.90
2017-07-31T15:15:56.529Z,49.90
2017-07-31T15:18:24.207Z,50.10
2017-07-31T15:20:52.330Z,50.60
2017-07-31T15:23:19.957Z,50.50
2017-07-31T15:25:47.654Z,50.20
2017-07-31T15:28:15.301Z,50.70
2017-07-31T15:30:43.421Z,50.60
2017-07-31T15:33:11.121Z,50.60
2017-07-31T15:35:38.812Z,50.70
2017-07-31T15:38:06.559Z,50.80
2017-07-31T15:40:34.310Z,49.80
2017-07-31T15:43:01.954Z,49.90
2017-07-31T15:45:29.599Z,49.80
2017-07-31T15:47:57.347Z,50.10
2017-07-31T15:50:25.094Z,50.50
2017-07-31T15:52:52.726Z,51.10
2017-07-31T15:55:20.882Z,52.10
2017-07-31T15:57:48.519Z,52.40
2017-07-31T16:00:16.184Z,50.50
2017-07-31T16:02:43.931Z,51.30
2017-07-31T16:05:11.576Z,51.00
2017-07-31T16:07:39.220Z,51.40
2017-07-31T16:10:06.902Z,51.10
2017-07-31T16:12:34.934Z,51.60
2017-07-31T16:15:02.669Z,51.60
2017-07-31T16:17:30.337Z,50.60
2017-07-31T16:19:58.358Z,50.00
2017-07-31T16:22:25.998Z,50.00
2017-07-31T16:24:53.674Z,50.70
2017-07-31T16:27:21.310Z,50.10
2017-07-31T16:29:48.948Z,49.60
2017-07-31T16:32:16.630Z,49.50
2017-07-31T16:34:44.748Z,49.60
2017-07-31T16:37:38.298Z,49.60
2017-07-31T16:40:32.668Z,50.30
2017-07-31T16:43:21.199Z,50.40
2017-07-31T16:45:48.843Z,50.90
2017-07-31T16:48:28.340Z,51.00
2017-07-31T16:50:56.018Z,51.50
2017-07-31T16:53:23.686Z,51.50
2017-07-31T16:55:51.837Z,52.20
2017-07-31T16:58:19.969Z,52.50
2017-07-31T17:03:22.169Z,53.10
2017-07-31T17:05:49.823Z,53.10
2017-07-31T17:08:17.464Z,53.90
2017-07-31T17:10:45.146Z,54.00
2017-07-31T17:13:12.774Z,53.80
2017-07-31T17:15:40.410Z,53.70
2017-07-31T17:18:08.094Z,53.90
2017-07-31T17:20:35.737Z,54.40
2017-07-31T17:23:03.383Z,54.50
2017-07-31T17:25:31.232Z,54.60
2017-07-31T17:27:58.880Z,54.90
2017-07-31T17:30:26.624Z,54.70
2017-07-31T17:32:54.306Z,55.40
2017-07-31T17:35:22.342Z,56.10
2017-07-31T17:37:50.071Z,56.10
2017-07-31T17:40:17.817Z,56.60
2017-07-31T17:42:45.462Z,56.80
2017-07-31T17:45:13.210Z,57.10
2017-07-31T17:47:41.060Z,57.30
2017-07-31T17:50:08.806Z,57.60
2017-07-31T17:52:36.443Z,58.00
2017-07-31T17:55:04.303Z,58.00
2017-07-31T17:57:31.958Z,58.40
2017-07-31T17:59:59.695Z,58.20
2017-07-31T18:02:27.544Z,58.50
2017-07-31T18:04:55.188Z,58.40
2017-07-31T18:07:22.831Z,58.50
2017-07-31T18:09:50.517Z,58.70
2017-07-31T18:12:18.579Z,60.30
2017-07-31T18:14:46.281Z,60.20
2017-07-31T18:17:14.028Z,60.80
2017-07-31T18:19:41.668Z,61.10
2017-07-31T18:22:09.316Z,61.00
2017-07-31T18:24:36.998Z,61.60
2017-07-31T18:27:04.712Z,61.60
2017-07-31T18:29:32.349Z,62.80
2017-07-31T18:32:00.086Z,62.80
2017-07-31T18:34:27.748Z,62.70
2017-07-31T18:36:55.377Z,63.10
2017-07-31T18:39:23.162Z,63.80
2017-07-31T18:41:51.197Z,63.50
2017-07-31T18:44:18.830Z,63.50
2017-07-31T18:46:46.587Z,63.80
2017-07-31T18:49:14.435Z,63.80
2017-07-31T18:51:42.182Z,63.60
2017-07-31T18:54:10.853Z,63.90
2017-07-31T18:56:39.191Z,64.40
2017-07-31T18:59:06.965Z,64.80
2017-07-31T19:01:34.662Z,64.60
2017-07-31T19:04:02.314Z,64.90
2017-07-31T19:06:29.961Z,65.10
2017-07-31T19:08:57.745Z,65.80
2017-07-31T19:11:25.494Z,65.60
2017-07-31T19:13:54.266Z,65.80
2017-07-31T19:16:22.114Z,66.10
2017-07-31T19:18:50.376Z,66.10
2017-07-31T19:21:18.122Z,66.40
2017-07-31T19:23:45.868Z,66.10
2017-07-31T19:26:13.614Z,66.50
2017-07-31T19:28:41.286Z,66.60
2017-07-31T19:31:09.087Z,66.50
2017-07-31T19:33:36.753Z,66.50
2017-07-31T19:36:04.389Z,66.40
2017-07-31T19:38:32.065Z,66.70
2017-07-31T19:41:00.111Z,67.20
2017-07-31T19:43:27.950Z,67.20
2017-07-31T19:45:55.798Z,67.30
2017-07-31T19:48:23.442Z,67.30
2017-07-31T19:50:51.190Z,67.40
2017-07-31T19:53:18.883Z,67.60
2017-07-31T19:55:46.584Z,67.80
2017-07-31T19:58:14.226Z,68.00
2017-07-31T20:00:42.042Z,68.20
2017-07-31T20:03:09.823Z,68.10
2017-07-31T20:05:37.463Z,68.10
2017-07-31T20:08:05.305Z,68.20
2017-07-31T20:10:32.938Z,68.20
2017-07-31T20:13:00.609Z,68.40
2017-07-31T20:15:28.357Z,68.00
2017-07-31T20:17:56.106Z,68.20
2017-07-31T20:20:23.851Z,68.30
2017-07-31T20:22:51.701Z,68.50
2017-07-31T20:25:19.390Z,68.60
2017-07-31T20:27:47.031Z,68.70
2017-07-31T20:30:14.839Z,68.80
2017-07-31T20:32:42.484Z,68.80
2017-07-31T20:35:10.127Z,69.10
2017-07-31T20:37:37.878Z,69.30
2017-07-31T20:40:05.522Z,69.40
2017-07-31T20:42:33.269Z,69.30
2017-07-31T20:45:00.964Z,69.70
2017-07-31T20:47:28.632Z,69.80
2017-07-31T20:49:56.278Z,69.90
2017-07-31T20:52:23.969Z,69.80
2017-07-31T20:54:51.601Z,70.00
2017-07-31T20:57:19.236Z,69.80
2017-07-31T20:59:46.988Z,69.90
2017-07-31T21:02:14.618Z,70.00
2017-07-31T21:04:42.277Z,70.00
2017-07-31T21:07:09.975Z,69.90
2017-07-31T21:09:37.614Z,69.70
2017-07-31T21:12:05.316Z,69.80
2017-07-31T21:14:32.994Z,69.80
2017-07-31T21:17:01.118Z,69.40
2017-07-31T21:19:28.794Z,69.40
2017-07-31T21:21:56.919Z,69.10
2017-07-31T21:24:24.554Z,69.10
2017-07-31T21:26:52.208Z,69.20
2017-07-31T21:29:19.902Z,69.30
2017-07-31T21:31:47.601Z,69.30
2017-07-31T21:34:15.347Z,69.40
2017-07-31T21:36:43.466Z,69.50
2017-07-31T21:39:11.148Z,69.60
2017-07-31T21:41:38.774Z,69.80
2017-07-31T21:44:06.470Z,70.20
2017-07-31T21:46:34.506Z,70.30
2017-07-31T21:49:02.146Z,70.30
2017-07-31T21:51:29.834Z,70.40
2017-07-31T21:53:57.470Z,70.40
2017-07-31T21:56:25.586Z,70.80
2017-07-31T21:58:53.266Z,70.80
2017-07-31T22:01:21.387Z,71.50
2017-07-31T22:03:49.029Z,71.50
2017-07-31T22:06:16.739Z,71.90
2017-07-31T22:08:44.398Z,72.30
2017-07-31T22:11:12.030Z,72.60
2017-07-31T22:13:39.755Z,73.00
2017-07-31T22:16:07.458Z,73.00
2017-07-31T22:18:35.093Z,73.10
2017-07-31T22:21:08.382Z,73.00
2017-07-31T22:23:36.129Z,73.10
2017-07-31T22:26:03.758Z,73.30
2017-07-31T22:28:31.438Z,73.40
2017-07-31T22:30:59.211Z,73.70
2017-07-31T22:33:26.850Z,73.90
2017-07-31T22:35:55.149Z,74.40
2017-07-31T22:38:22.786Z,74.40
2017-07-31T22:40:50.433Z,74.50
2017-07-31T22:43:18.210Z,74.80
2017-07-31T22:45:45.958Z,75.00
2017-07-31T22:48:13.706Z,75.30
2017-07-31T22:50:41.408Z,75.40
2017-07-31T22:53:09.096Z,75.70
2017-07-31T22:55:36.740Z,75.60
2017-07-31T22:58:04.492Z,75.90
2017-07-31T23:00:32.123Z,76.10
2017-07-31T23:02:59.761Z,76.10
2017-07-31T23:05:27.528Z,76.00
2017-07-31T23:07:55.165Z,76.30
2017-07-31T23:10:22.798Z,76.40
2017-07-31T23:12:50.564Z,76.60
2017-07-31T23:15:18.198Z,76.60
2017-07-31T23:17:45.835Z,76.70
2017-07-31T23:20:13.601Z,76.90
2017-07-31T23:22:41.233Z,77.10
2017-07-31T23:25:08.892Z,76.90
2017-07-31T23:27:36.670Z,76.80
2017-07-31T23:30:04.703Z,76.70
2017-07-31T23:32:32.443Z,76.70
2017-07-31T23:35:00.130Z,76.70
2017-07-31T23:37:27.836Z,76.60
2017-07-31T23:39:55.470Z,76.70
2017-07-31T23:42:23.169Z,76.70
2017-07-31T23:44:50.810Z,77.20
2017-07-31T23:47:18.617Z,77.40
2017-07-31T23:49:46.364Z,77.60
2017-07-31T23:52:14.004Z,77.70
2017-07-31T23:54:41.634Z,78.00
2017-07-31T23:57:09.329Z,78.00
2017-07-31T23:59:37.350Z,78.10
